sensor_id;sensor_type;location;lat;lon;timestamp;P1;durP1;ratioP1;P2;durP2;ratioP2
74245;SDS011;62601;51.044;13.788;2023-04-05T00:01:15;6.25;;;4.88;;
74245;SDS011;62601;51.044;13.788;2023-04-05T00:03:37;6.75;;;4.40;;
74245;SDS011;62601;51.044;13.788;2023-04-05T00:05:58;7.32;;;3.78;;
74245;SDS011;62601;51.044;13.788;2023-04-05T00:08:20;5.63;;;3.72;;
74245;SDS011;62601;51.044;13.788;2023-04-05T00:10:41;6.82;;;3.78;;
74245;SDS011;62601;51.044;13.788;2023-04-05T00:13:02;8.68;;;4.47;;
74245;SDS011;62601;51.044;13.788;2023-04-05T00:15:25;4.97;;;3.70;;
74245;SDS011;62601;51.044;13.788;2023-04-05T00:17:47;4.95;;;3.30;;
74245;SDS011;62601;51.044;13.788;2023-04-05T00:20:09;6.50;;;4.25;;
74245;SDS011;62601;51.044;13.788;2023-04-05T00:22:30;4.78;;;3.88;;
74245;SDS011;62601;51.044;13.788;2023-04-05T00:24:52;5.50;;;4.05;;
74245;SDS011;62601;51.044;13.788;2023-04-05T00:27:13;6.03;;;3.35;;
74245;SDS011;62601;51.044;13.788;2023-04-05T00:29:36;8.63;;;4.10;;
74245;SDS011;62601;51.044;13.788;2023-04-05T00:31:58;5.72;;;4.10;;
74245;SDS011;62601;51.044;13.788;2023-04-05T00:34:19;6.38;;;4.20;;
74245;SDS011;62601;51.044;13.788;2023-04-05T00:36:41;9.88;;;4.15;;
74245;SDS011;62601;51.044;13.788;2023-04-05T00:39:02;5.53;;;4.07;;
74245;SDS011;62601;51.044;13.788;2023-04-05T00:41:24;6.13;;;4.55;;
74245;SDS011;62601;51.044;13.788;2023-04-05T00:43:45;6.53;;;3.72;;
74245;SDS011;62601;51.044;13.788;2023-04-05T00:46:07;4.93;;;3.80;;
74245;SDS011;62601;51.044;13.788;2023-04-05T00:48:28;5.22;;;3.85;;
74245;SDS011;62601;51.044;13.788;2023-04-05T00:50:50;4.88;;;3.50;;
74245;SDS011;62601;51.044;13.788;2023-04-05T00:53:12;6.85;;;4.10;;
74245;SDS011;62601;51.044;13.788;2023-04-05T00:55:34;11.73;;;3.80;;
74245;SDS011;62601;51.044;13.788;2023-04-05T00:57:56;4.93;;;3.85;;
74245;SDS011;62601;51.044;13.788;2023-04-05T01:00:18;5.80;;;3.55;;
74245;SDS011;62601;51.044;13.788;2023-04-05T01:02:54;7.97;;;3.50;;
74245;SDS011;62601;51.044;13.788;2023-04-05T01:05:50;8.75;;;4.50;;
74245;SDS011;62601;51.044;13.788;2023-04-05T01:10:43;5.25;;;3.50;;
74245;SDS011;62601;51.044;13.788;2023-04-05T01:13:06;6.85;;;3.72;;
74245;SDS011;62601;51.044;13.788;2023-04-05T01:15:27;5.38;;;3.45;;
74245;SDS011;62601;51.044;13.788;2023-04-05T01:17:49;5.60;;;3.97;;
74245;SDS011;62601;51.044;13.788;2023-04-05T01:20:11;5.47;;;3.22;;
74245;SDS011;62601;51.044;13.788;2023-04-05T01:28:12;5.90;;;4.28;;
74245;SDS011;62601;51.044;13.788;2023-04-05T01:30:36;5.75;;;3.13;;
74245;SDS011;62601;51.044;13.788;2023-04-05T01:33:24;4.13;;;3.25;;
74245;SDS011;62601;51.044;13.788;2023-04-05T01:36:04;7.68;;;4.40;;
74245;SDS011;62601;51.044;13.788;2023-04-05T01:38:27;6.97;;;3.67;;
74245;SDS011;62601;51.044;13.788;2023-04-05T01:40:48;5.55;;;3.65;;
74245;SDS011;62601;51.044;13.788;2023-04-05T01:43:16;4.72;;;3.25;;
74245;SDS011;62601;51.044;13.788;2023-04-05T01:45:38;4.82;;;3.42;;
74245;SDS011;62601;51.044;13.788;2023-04-05T01:47:59;6.80;;;4.10;;
74245;SDS011;62601;51.044;13.788;2023-04-05T01:50:20;4.32;;;3.90;;
74245;SDS011;62601;51.044;13.788;2023-04-05T01:52:42;4.60;;;3.55;;
74245;SDS011;62601;51.044;13.788;2023-04-05T01:55:03;4.43;;;3.85;;
74245;SDS011;62601;51.044;13.788;2023-04-05T01:57:25;4.75;;;3.83;;
74245;SDS011;62601;51.044;13.788;2023-04-05T01:59:45;6.85;;;4.78;;
74245;SDS011;62601;51.044;13.788;2023-04-05T02:02:06;4.97;;;3.50;;
74245;SDS011;62601;51.044;13.788;2023-04-05T02:04:28;3.92;;;2.92;;
74245;SDS011;62601;51.044;13.788;2023-04-05T02:06:50;5.18;;;4.10;;
74245;SDS011;62601;51.044;13.788;2023-04-05T02:09:11;6.53;;;4.10;;
74245;SDS011;62601;51.044;13.788;2023-04-05T02:11:33;6.78;;;3.80;;
74245;SDS011;62601;51.044;13.788;2023-04-05T02:13:54;6.80;;;4.35;;
74245;SDS011;62601;51.044;13.788;2023-04-05T02:16:16;6.50;;;4.18;;
74245;SDS011;62601;51.044;13.788;2023-04-05T02:18:37;4.05;;;3.65;;
74245;SDS011;62601;51.044;13.788;2023-04-05T02:21:01;4.60;;;3.53;;
74245;SDS011;62601;51.044;13.788;2023-04-05T02:23:23;10.60;;;3.90;;
74245;SDS011;62601;51.044;13.788;2023-04-05T02:25:45;6.72;;;4.95;;
74245;SDS011;62601;51.044;13.788;2023-04-05T02:28:06;4.50;;;3.17;;
74245;SDS011;62601;51.044;13.788;2023-04-05T02:30:27;5.40;;;3.53;;
74245;SDS011;62601;51.044;13.788;2023-04-05T02:32:49;3.60;;;3.00;;
74245;SDS011;62601;51.044;13.788;2023-04-05T02:35:10;4.00;;;3.00;;
74245;SDS011;62601;51.044;13.788;2023-04-05T02:37:31;4.63;;;3.45;;
74245;SDS011;62601;51.044;13.788;2023-04-05T02:39:53;4.47;;;3.20;;
74245;SDS011;62601;51.044;13.788;2023-04-05T02:42:13;4.13;;;3.13;;
74245;SDS011;62601;51.044;13.788;2023-04-05T02:44:34;5.60;;;3.65;;
74245;SDS011;62601;51.044;13.788;2023-04-05T02:46:55;5.97;;;3.17;;
74245;SDS011;62601;51.044;13.788;2023-04-05T02:49:17;3.85;;;3.35;;
74245;SDS011;62601;51.044;13.788;2023-04-05T02:51:38;3.80;;;3.40;;
74245;SDS011;62601;51.044;13.788;2023-04-05T02:54:02;6.53;;;3.47;;
74245;SDS011;62601;51.044;13.788;2023-04-05T02:56:24;5.18;;;3.80;;
74245;SDS011;62601;51.044;13.788;2023-04-05T02:58:45;4.00;;;3.42;;
74245;SDS011;62601;51.044;13.788;2023-04-05T03:01:07;6.25;;;3.40;;
74245;SDS011;62601;51.044;13.788;2023-04-05T03:03:28;5.45;;;3.90;;
74245;SDS011;62601;51.044;13.788;2023-04-05T03:05:56;4.85;;;3.30;;
74245;SDS011;62601;51.044;13.788;2023-04-05T03:08:17;5.15;;;3.28;;
74245;SDS011;62601;51.044;13.788;2023-04-05T03:10:39;3.85;;;3.55;;
74245;SDS011;62601;51.044;13.788;2023-04-05T03:13:00;6.32;;;3.53;;
74245;SDS011;62601;51.044;13.788;2023-04-05T03:15:22;4.00;;;3.60;;
74245;SDS011;62601;51.044;13.788;2023-04-05T03:17:43;4.47;;;3.45;;
74245;SDS011;62601;51.044;13.788;2023-04-05T03:20:05;5.05;;;3.65;;
74245;SDS011;62601;51.044;13.788;2023-04-05T03:22:26;6.55;;;3.55;;
74245;SDS011;62601;51.044;13.788;2023-04-05T03:24:47;7.38;;;3.70;;
74245;SDS011;62601;51.044;13.788;2023-04-05T03:27:09;5.15;;;3.55;;
74245;SDS011;62601;51.044;13.788;2023-04-05T03:29:30;4.35;;;3.70;;
74245;SDS011;62601;51.044;13.788;2023-04-05T03:31:51;5.32;;;3.63;;
74245;SDS011;62601;51.044;13.788;2023-04-05T03:34:13;4.43;;;3.70;;
74245;SDS011;62601;51.044;13.788;2023-04-05T03:36:34;5.45;;;3.63;;
74245;SDS011;62601;51.044;13.788;2023-04-05T03:38:59;4.30;;;3.50;;
74245;SDS011;62601;51.044;13.788;2023-04-05T03:41:20;3.97;;;3.58;;
74245;SDS011;62601;51.044;13.788;2023-04-05T03:43:42;5.55;;;3.40;;
74245;SDS011;62601;51.044;13.788;2023-04-05T03:46:03;4.43;;;3.50;;
74245;SDS011;62601;51.044;13.788;2023-04-05T03:48:25;5.55;;;3.90;;
74245;SDS011;62601;51.044;13.788;2023-04-05T03:50:46;4.93;;;4.43;;
74245;SDS011;62601;51.044;13.788;2023-04-05T03:53:07;6.15;;;4.65;;
74245;SDS011;62601;51.044;13.788;2023-04-05T03:55:29;7.03;;;4.38;;
74245;SDS011;62601;51.044;13.788;2023-04-05T03:57:51;7.03;;;4.50;;
74245;SDS011;62601;51.044;13.788;2023-04-05T04:00:12;5.25;;;4.70;;
74245;SDS011;62601;51.044;13.788;2023-04-05T04:02:33;9.32;;;4.90;;
74245;SDS011;62601;51.044;13.788;2023-04-05T04:04:54;5.10;;;4.43;;
74245;SDS011;62601;51.044;13.788;2023-04-05T04:07:16;6.00;;;4.30;;
74245;SDS011;62601;51.044;13.788;2023-04-05T04:09:37;7.72;;;4.47;;
74245;SDS011;62601;51.044;13.788;2023-04-05T04:11:59;5.60;;;4.63;;
74245;SDS011;62601;51.044;13.788;2023-04-05T04:14:21;6.25;;;4.78;;
74245;SDS011;62601;51.044;13.788;2023-04-05T04:16:41;6.60;;;4.70;;
74245;SDS011;62601;51.044;13.788;2023-04-05T04:19:01;5.85;;;4.10;;
74245;SDS011;62601;51.044;13.788;2023-04-05T04:21:23;8.95;;;4.38;;
74245;SDS011;62601;51.044;13.788;2023-04-05T04:23:44;6.70;;;4.07;;
74245;SDS011;62601;51.044;13.788;2023-04-05T04:26:05;6.07;;;4.47;;
74245;SDS011;62601;51.044;13.788;2023-04-05T04:28:26;5.10;;;4.03;;
74245;SDS011;62601;51.044;13.788;2023-04-05T04:30:47;6.88;;;4.50;;
74245;SDS011;62601;51.044;13.788;2023-04-05T04:33:07;9.48;;;4.60;;
74245;SDS011;62601;51.044;13.788;2023-04-05T04:35:29;6.32;;;4.47;;
74245;SDS011;62601;51.044;13.788;2023-04-05T04:37:53;6.30;;;4.32;;
74245;SDS011;62601;51.044;13.788;2023-04-05T04:40:18;5.85;;;4.40;;
74245;SDS011;62601;51.044;13.788;2023-04-05T04:42:40;4.70;;;4.20;;
74245;SDS011;62601;51.044;13.788;2023-04-05T04:45:01;4.90;;;4.40;;
74245;SDS011;62601;51.044;13.788;2023-04-05T04:47:21;8.38;;;5.75;;
74245;SDS011;62601;51.044;13.788;2023-04-05T04:49:42;5.78;;;4.90;;
74245;SDS011;62601;51.044;13.788;2023-04-05T04:52:03;9.48;;;6.60;;
74245;SDS011;62601;51.044;13.788;2023-04-05T04:54:24;4.95;;;4.45;;
74245;SDS011;62601;51.044;13.788;2023-04-05T04:56:46;7.32;;;5.03;;
74245;SDS011;62601;51.044;13.788;2023-04-05T04:59:07;7.20;;;4.40;;
74245;SDS011;62601;51.044;13.788;2023-04-05T05:01:28;5.80;;;4.05;;
74245;SDS011;62601;51.044;13.788;2023-04-05T05:03:50;5.50;;;4.10;;
74245;SDS011;62601;51.044;13.788;2023-04-05T05:06:10;4.53;;;3.92;;
74245;SDS011;62601;51.044;13.788;2023-04-05T05:08:36;5.45;;;4.07;;
74245;SDS011;62601;51.044;13.788;2023-04-05T05:10:56;6.95;;;4.25;;
74245;SDS011;62601;51.044;13.788;2023-04-05T05:13:18;5.07;;;3.70;;
74245;SDS011;62601;51.044;13.788;2023-04-05T05:15:39;6.05;;;4.47;;
74245;SDS011;62601;51.044;13.788;2023-04-05T05:18:01;6.07;;;4.95;;
74245;SDS011;62601;51.044;13.788;2023-04-05T05:20:23;5.53;;;4.00;;
74245;SDS011;62601;51.044;13.788;2023-04-05T05:22:43;9.27;;;4.43;;
74245;SDS011;62601;51.044;13.788;2023-04-05T05:25:04;7.25;;;4.10;;
74245;SDS011;62601;51.044;13.788;2023-04-05T05:27:26;5.63;;;4.10;;
74245;SDS011;62601;51.044;13.788;2023-04-05T05:29:47;6.63;;;3.88;;
74245;SDS011;62601;51.044;13.788;2023-04-05T05:32:09;5.00;;;3.95;;
74245;SDS011;62601;51.044;13.788;2023-04-05T05:34:29;5.22;;;4.50;;
74245;SDS011;62601;51.044;13.788;2023-04-05T05:36:51;6.68;;;4.63;;
74245;SDS011;62601;51.044;13.788;2023-04-05T05:39:12;9.82;;;4.43;;
74245;SDS011;62601;51.044;13.788;2023-04-05T05:41:35;5.65;;;4.07;;
74245;SDS011;62601;51.044;13.788;2023-04-05T05:43:57;6.95;;;4.50;;
74245;SDS011;62601;51.044;13.788;2023-04-05T05:46:17;5.65;;;4.45;;
74245;SDS011;62601;51.044;13.788;2023-04-05T05:48:39;4.82;;;3.83;;
74245;SDS011;62601;51.044;13.788;2023-04-05T05:51:00;5.95;;;4.47;;
74245;SDS011;62601;51.044;13.788;2023-04-05T05:53:21;7.57;;;6.18;;
74245;SDS011;62601;51.044;13.788;2023-04-05T05:55:46;8.98;;;5.95;;
74245;SDS011;62601;51.044;13.788;2023-04-05T05:58:07;10.18;;;5.30;;
74245;SDS011;62601;51.044;13.788;2023-04-05T06:00:29;7.45;;;5.72;;
74245;SDS011;62601;51.044;13.788;2023-04-05T06:02:49;8.43;;;5.20;;
74245;SDS011;62601;51.044;13.788;2023-04-05T06:05:10;12.90;;;6.00;;
74245;SDS011;62601;51.044;13.788;2023-04-05T06:07:33;12.52;;;7.40;;
74245;SDS011;62601;51.044;13.788;2023-04-05T06:09:55;9.07;;;6.38;;
74245;SDS011;62601;51.044;13.788;2023-04-05T06:12:15;17.67;;;7.10;;
74245;SDS011;62601;51.044;13.788;2023-04-05T06:14:37;9.15;;;5.50;;
74245;SDS011;62601;51.044;13.788;2023-04-05T06:16:58;10.20;;;7.50;;
74245;SDS011;62601;51.044;13.788;2023-04-05T06:19:21;17.80;;;9.27;;
74245;SDS011;62601;51.044;13.788;2023-04-05T06:21:42;23.10;;;9.07;;
74245;SDS011;62601;51.044;13.788;2023-04-05T06:24:04;7.15;;;6.40;;
74245;SDS011;62601;51.044;13.788;2023-04-05T06:26:25;6.43;;;5.35;;
74245;SDS011;62601;51.044;13.788;2023-04-05T06:28:47;11.52;;;5.90;;
74245;SDS011;62601;51.044;13.788;2023-04-05T06:31:09;15.27;;;7.68;;
74245;SDS011;62601;51.044;13.788;2023-04-05T06:33:30;10.85;;;6.10;;
74245;SDS011;62601;51.044;13.788;2023-04-05T06:35:52;9.27;;;6.55;;
74245;SDS011;62601;51.044;13.788;2023-04-05T06:38:13;10.82;;;6.07;;
74245;SDS011;62601;51.044;13.788;2023-04-05T06:40:35;14.43;;;8.88;;
74245;SDS011;62601;51.044;13.788;2023-04-05T06:42:56;20.45;;;11.48;;
74245;SDS011;62601;51.044;13.788;2023-04-05T06:45:18;14.15;;;6.60;;
74245;SDS011;62601;51.044;13.788;2023-04-05T06:47:38;15.55;;;9.63;;
74245;SDS011;62601;51.044;13.788;2023-04-05T06:50:00;23.63;;;14.23;;
74245;SDS011;62601;51.044;13.788;2023-04-05T06:52:22;10.10;;;7.38;;
74245;SDS011;62601;51.044;13.788;2023-04-05T06:54:44;13.40;;;7.90;;
74245;SDS011;62601;51.044;13.788;2023-04-05T06:57:04;7.38;;;6.22;;
74245;SDS011;62601;51.044;13.788;2023-04-05T06:59:27;10.85;;;6.00;;
74245;SDS011;62601;51.044;13.788;2023-04-05T07:01:48;6.95;;;5.93;;
74245;SDS011;62601;51.044;13.788;2023-04-05T07:04:11;9.48;;;5.75;;
74245;SDS011;62601;51.044;13.788;2023-04-05T07:06:32;7.85;;;6.40;;
74245;SDS011;62601;51.044;13.788;2023-04-05T07:08:53;11.07;;;6.68;;
74245;SDS011;62601;51.044;13.788;2023-04-05T07:11:15;7.65;;;5.78;;
74245;SDS011;62601;51.044;13.788;2023-04-05T07:13:36;8.70;;;5.97;;
74245;SDS011;62601;51.044;13.788;2023-04-05T07:16:01;7.70;;;5.90;;
74245;SDS011;62601;51.044;13.788;2023-04-05T07:18:25;9.02;;;6.10;;
74245;SDS011;62601;51.044;13.788;2023-04-05T07:20:46;8.20;;;6.10;;
74245;SDS011;62601;51.044;13.788;2023-04-05T07:23:08;6.97;;;5.40;;
74245;SDS011;62601;51.044;13.788;2023-04-05T07:25:29;10.80;;;5.97;;
74245;SDS011;62601;51.044;13.788;2023-04-05T07:27:50;8.98;;;6.20;;
74245;SDS011;62601;51.044;13.788;2023-04-05T07:30:10;6.95;;;5.47;;
74245;SDS011;62601;51.044;13.788;2023-04-05T07:32:31;13.85;;;7.20;;
74245;SDS011;62601;51.044;13.788;2023-04-05T07:34:51;7.55;;;4.35;;
74245;SDS011;62601;51.044;13.788;2023-04-05T07:37:12;9.18;;;5.50;;
74245;SDS011;62601;51.044;13.788;2023-04-05T07:39:34;7.40;;;5.63;;
74245;SDS011;62601;51.044;13.788;2023-04-05T07:41:55;8.68;;;5.60;;
74245;SDS011;62601;51.044;13.788;2023-04-05T07:44:17;31.42;;;19.88;;
74245;SDS011;62601;51.044;13.788;2023-04-05T07:46:37;10.63;;;6.78;;
74245;SDS011;62601;51.044;13.788;2023-04-05T07:48:57;8.18;;;5.95;;
74245;SDS011;62601;51.044;13.788;2023-04-05T07:51:17;6.45;;;4.30;;
74245;SDS011;62601;51.044;13.788;2023-04-05T07:53:37;8.88;;;5.20;;
74245;SDS011;62601;51.044;13.788;2023-04-05T07:56:01;6.38;;;5.05;;
74245;SDS011;62601;51.044;13.788;2023-04-05T07:58:24;4.80;;;4.07;;
74245;SDS011;62601;51.044;13.788;2023-04-05T08:00:45;6.18;;;4.40;;
74245;SDS011;62601;51.044;13.788;2023-04-05T08:03:09;5.22;;;4.72;;
74245;SDS011;62601;51.044;13.788;2023-04-05T08:05:29;8.50;;;4.47;;
74245;SDS011;62601;51.044;13.788;2023-04-05T08:07:51;9.80;;;6.10;;
74245;SDS011;62601;51.044;13.788;2023-04-05T08:10:12;9.98;;;5.18;;
74245;SDS011;62601;51.044;13.788;2023-04-05T08:12:33;7.95;;;4.88;;
74245;SDS011;62601;51.044;13.788;2023-04-05T08:14:55;5.68;;;4.35;;
74245;SDS011;62601;51.044;13.788;2023-04-05T08:17:16;16.63;;;9.90;;
74245;SDS011;62601;51.044;13.788;2023-04-05T08:19:39;6.07;;;3.97;;
74245;SDS011;62601;51.044;13.788;2023-04-05T08:22:00;6.75;;;3.80;;
74245;SDS011;62601;51.044;13.788;2023-04-05T08:24:22;5.32;;;3.78;;
74245;SDS011;62601;51.044;13.788;2023-04-05T08:26:43;8.48;;;4.15;;
74245;SDS011;62601;51.044;13.788;2023-04-05T08:29:05;7.85;;;4.20;;
74245;SDS011;62601;51.044;13.788;2023-04-05T08:31:29;5.57;;;3.63;;
74245;SDS011;62601;51.044;13.788;2023-04-05T08:33:50;5.70;;;3.97;;
74245;SDS011;62601;51.044;13.788;2023-04-05T08:36:12;5.95;;;4.10;;
74245;SDS011;62601;51.044;13.788;2023-04-05T08:38:33;4.78;;;3.50;;
74245;SDS011;62601;51.044;13.788;2023-04-05T08:40:54;8.82;;;6.50;;
74245;SDS011;62601;51.044;13.788;2023-04-05T08:45:57;8.13;;;3.95;;
74245;SDS011;62601;51.044;13.788;2023-04-05T08:48:30;9.07;;;3.50;;
74245;SDS011;62601;51.044;13.788;2023-04-05T08:50:52;12.63;;;5.70;;
74245;SDS011;62601;51.044;13.788;2023-04-05T08:53:14;8.55;;;4.38;;
74245;SDS011;62601;51.044;13.788;2023-04-05T08:55:36;6.47;;;4.45;;
74245;SDS011;62601;51.044;13.788;2023-04-05T08:57:57;7.93;;;5.28;;
74245;SDS011;62601;51.044;13.788;2023-04-05T09:00:20;6.65;;;4.53;;
74245;SDS011;62601;51.044;13.788;2023-04-05T09:02:42;7.07;;;4.88;;
74245;SDS011;62601;51.044;13.788;2023-04-05T09:05:07;4.55;;;3.50;;
74245;SDS011;62601;51.044;13.788;2023-04-05T09:07:38;6.65;;;3.83;;
74245;SDS011;62601;51.044;13.788;2023-04-05T09:09:59;4.90;;;3.90;;
74245;SDS011;62601;51.044;13.788;2023-04-05T09:12:21;8.68;;;5.55;;
74245;SDS011;62601;51.044;13.788;2023-04-05T09:14:42;5.13;;;4.22;;
74245;SDS011;62601;51.044;13.788;2023-04-05T09:17:02;6.57;;;4.43;;
74245;SDS011;62601;51.044;13.788;2023-04-05T09:19:23;8.45;;;4.18;;
74245;SDS011;62601;51.044;13.788;2023-04-05T09:22:27;5.07;;;4.20;;
74245;SDS011;62601;51.044;13.788;2023-04-05T09:24:36;7.45;;;4.75;;
74245;SDS011;62601;51.044;13.788;2023-04-05T09:27:08;6.30;;;3.45;;
74245;SDS011;62601;51.044;13.788;2023-04-05T09:29:29;4.25;;;3.60;;
74245;SDS011;62601;51.044;13.788;2023-04-05T09:31:51;8.38;;;3.47;;
74245;SDS011;62601;51.044;13.788;2023-04-05T09:34:12;4.97;;;4.00;;
74245;SDS011;62601;51.044;13.788;2023-04-05T09:36:42;5.07;;;3.47;;
74245;SDS011;62601;51.044;13.788;2023-04-05T09:39:08;7.55;;;3.47;;
74245;SDS011;62601;51.044;13.788;2023-04-05T09:41:29;3.72;;;3.40;;
74245;SDS011;62601;51.044;13.788;2023-04-05T09:43:51;3.55;;;3.15;;
74245;SDS011;62601;51.044;13.788;2023-04-05T09:48:52;4.97;;;3.67;;
74245;SDS011;62601;51.044;13.788;2023-04-05T09:51:14;3.97;;;3.38;;
74245;SDS011;62601;51.044;13.788;2023-04-05T09:54:01;4.25;;;3.80;;
74245;SDS011;62601;51.044;13.788;2023-04-05T09:56:21;7.40;;;3.55;;
74245;SDS011;62601;51.044;13.788;2023-04-05T09:58:43;5.65;;;3.80;;
74245;SDS011;62601;51.044;13.788;2023-04-05T10:01:04;5.18;;;4.20;;
74245;SDS011;62601;51.044;13.788;2023-04-05T10:03:25;5.25;;;4.10;;
74245;SDS011;62601;51.044;13.788;2023-04-05T10:05:47;8.93;;;4.57;;
74245;SDS011;62601;51.044;13.788;2023-04-05T10:08:14;3.88;;;3.35;;
74245;SDS011;62601;51.044;13.788;2023-04-05T10:10:36;6.00;;;3.60;;
74245;SDS011;62601;51.044;13.788;2023-04-05T10:13:04;7.05;;;3.15;;
74245;SDS011;62601;51.044;13.788;2023-04-05T10:15:25;3.30;;;3.00;;
74245;SDS011;62601;51.044;13.788;2023-04-05T10:17:51;3.47;;;3.08;;
74245;SDS011;62601;51.044;13.788;2023-04-05T10:20:16;6.03;;;3.22;;
74245;SDS011;62601;51.044;13.788;2023-04-05T10:22:47;5.53;;;3.50;;
74245;SDS011;62601;51.044;13.788;2023-04-05T10:27:51;5.07;;;2.70;;
74245;SDS011;62601;51.044;13.788;2023-04-05T10:30:14;4.20;;;3.47;;
74245;SDS011;62601;51.044;13.788;2023-04-05T10:35:19;4.82;;;4.00;;
74245;SDS011;62601;51.044;13.788;2023-04-05T10:40:23;4.75;;;3.05;;
74245;SDS011;62601;51.044;13.788;2023-04-05T10:42:47;3.88;;;3.30;;
74245;SDS011;62601;51.044;13.788;2023-04-05T10:45:09;3.70;;;2.50;;
74245;SDS011;62601;51.044;13.788;2023-04-05T10:47:31;4.63;;;3.00;;
74245;SDS011;62601;51.044;13.788;2023-04-05T10:49:58;4.18;;;2.80;;
74245;SDS011;62601;51.044;13.788;2023-04-05T10:52:19;4.20;;;3.22;;
74245;SDS011;62601;51.044;13.788;2023-04-05T10:54:41;4.82;;;3.00;;
74245;SDS011;62601;51.044;13.788;2023-04-05T10:57:07;4.25;;;2.80;;
74245;SDS011;62601;51.044;13.788;2023-04-05T10:59:29;3.40;;;3.10;;
74245;SDS011;62601;51.044;13.788;2023-04-05T11:01:51;4.13;;;3.00;;
74245;SDS011;62601;51.044;13.788;2023-04-05T11:04:16;4.88;;;2.80;;
74245;SDS011;62601;51.044;13.788;2023-04-05T11:06:37;4.78;;;3.08;;
74245;SDS011;62601;51.044;13.788;2023-04-05T11:09:00;3.67;;;3.15;;
74245;SDS011;62601;51.044;13.788;2023-04-05T11:11:31;6.30;;;2.90;;
74245;SDS011;62601;51.044;13.788;2023-04-05T11:13:58;4.18;;;2.90;;
74245;SDS011;62601;51.044;13.788;2023-04-05T11:16:19;6.30;;;2.92;;
74245;SDS011;62601;51.044;13.788;2023-04-05T11:18:45;4.97;;;2.95;;
74245;SDS011;62601;51.044;13.788;2023-04-05T11:21:07;4.15;;;2.72;;
74245;SDS011;62601;51.044;13.788;2023-04-05T11:23:28;4.10;;;2.75;;
74245;SDS011;62601;51.044;13.788;2023-04-05T11:25:52;6.97;;;2.78;;
74245;SDS011;62601;51.044;13.788;2023-04-05T11:28:33;6.45;;;2.80;;
74245;SDS011;62601;51.044;13.788;2023-04-05T11:30:55;3.88;;;3.15;;
74245;SDS011;62601;51.044;13.788;2023-04-05T11:36:03;9.27;;;4.38;;
74245;SDS011;62601;51.044;13.788;2023-04-05T11:38:25;5.38;;;2.90;;
74245;SDS011;62601;51.044;13.788;2023-04-05T11:40:46;4.15;;;2.80;;
74245;SDS011;62601;51.044;13.788;2023-04-05T11:43:09;4.22;;;2.20;;
74245;SDS011;62601;51.044;13.788;2023-04-05T11:45:31;3.45;;;2.90;;
74245;SDS011;62601;51.044;13.788;2023-04-05T11:47:52;5.90;;;2.80;;
74245;SDS011;62601;51.044;13.788;2023-04-05T11:50:14;4.18;;;3.38;;
74245;SDS011;62601;51.044;13.788;2023-04-05T11:52:35;5.00;;;3.35;;
74245;SDS011;62601;51.044;13.788;2023-04-05T11:54:57;8.30;;;3.92;;
74245;SDS011;62601;51.044;13.788;2023-04-05T11:57:23;5.07;;;3.40;;
74245;SDS011;62601;51.044;13.788;2023-04-05T11:59:44;4.68;;;3.15;;
74245;SDS011;62601;51.044;13.788;2023-04-05T12:02:05;3.35;;;2.80;;
74245;SDS011;62601;51.044;13.788;2023-04-05T12:04:27;3.67;;;3.38;;
74245;SDS011;62601;51.044;13.788;2023-04-05T12:06:48;3.13;;;2.72;;
74245;SDS011;62601;51.044;13.788;2023-04-05T12:09:30;4.90;;;2.90;;
74245;SDS011;62601;51.044;13.788;2023-04-05T12:11:52;4.53;;;3.53;;
74245;SDS011;62601;51.044;13.788;2023-04-05T12:14:13;4.75;;;2.65;;
74245;SDS011;62601;51.044;13.788;2023-04-05T12:16:35;3.28;;;2.67;;
74245;SDS011;62601;51.044;13.788;2023-04-05T12:18:57;3.20;;;2.70;;
74245;SDS011;62601;51.044;13.788;2023-04-05T12:21:19;3.80;;;2.55;;
74245;SDS011;62601;51.044;13.788;2023-04-05T12:23:40;3.53;;;2.80;;
74245;SDS011;62601;51.044;13.788;2023-04-05T12:26:02;3.65;;;2.80;;
74245;SDS011;62601;51.044;13.788;2023-04-05T12:28:23;3.85;;;2.92;;
74245;SDS011;62601;51.044;13.788;2023-04-05T12:30:51;4.10;;;2.67;;
74245;SDS011;62601;51.044;13.788;2023-04-05T12:33:13;4.53;;;3.05;;
74245;SDS011;62601;51.044;13.788;2023-04-05T12:35:34;2.75;;;2.55;;
74245;SDS011;62601;51.044;13.788;2023-04-05T12:37:56;3.67;;;3.15;;
74245;SDS011;62601;51.044;13.788;2023-04-05T12:40:22;4.45;;;2.70;;
74245;SDS011;62601;51.044;13.788;2023-04-05T12:42:44;4.13;;;3.30;;
74245;SDS011;62601;51.044;13.788;2023-04-05T12:45:09;7.10;;;2.70;;
74245;SDS011;62601;51.044;13.788;2023-04-05T12:47:34;4.82;;;2.92;;
74245;SDS011;62601;51.044;13.788;2023-04-05T12:49:56;3.28;;;2.78;;
74245;SDS011;62601;51.044;13.788;2023-04-05T12:52:20;4.90;;;3.10;;
74245;SDS011;62601;51.044;13.788;2023-04-05T12:54:41;3.72;;;3.00;;
74245;SDS011;62601;51.044;13.788;2023-04-05T12:57:02;4.10;;;3.40;;
74245;SDS011;62601;51.044;13.788;2023-04-05T12:59:22;4.80;;;2.85;;
74245;SDS011;62601;51.044;13.788;2023-04-05T13:01:43;5.10;;;3.30;;
74245;SDS011;62601;51.044;13.788;2023-04-05T13:04:05;3.30;;;2.50;;
74245;SDS011;62601;51.044;13.788;2023-04-05T13:06:26;5.35;;;3.10;;
74245;SDS011;62601;51.044;13.788;2023-04-05T13:08:47;3.53;;;2.85;;
74245;SDS011;62601;51.044;13.788;2023-04-05T13:11:09;6.28;;;3.65;;
74245;SDS011;62601;51.044;13.788;2023-04-05T13:13:30;5.00;;;3.00;;
74245;SDS011;62601;51.044;13.788;2023-04-05T13:15:52;8.18;;;2.85;;
74245;SDS011;62601;51.044;13.788;2023-04-05T13:18:13;3.22;;;2.92;;
74245;SDS011;62601;51.044;13.788;2023-04-05T13:20:34;6.88;;;3.65;;
74245;SDS011;62601;51.044;13.788;2023-04-05T13:22:56;3.35;;;2.95;;
74245;SDS011;62601;51.044;13.788;2023-04-05T13:25:16;5.00;;;3.10;;
74245;SDS011;62601;51.044;13.788;2023-04-05T13:27:39;3.47;;;3.03;;
74245;SDS011;62601;51.044;13.788;2023-04-05T13:30:00;5.32;;;3.00;;
74245;SDS011;62601;51.044;13.788;2023-04-05T13:32:22;6.95;;;3.25;;
74245;SDS011;62601;51.044;13.788;2023-04-05T13:34:43;3.90;;;2.65;;
74245;SDS011;62601;51.044;13.788;2023-04-05T13:37:04;4.25;;;2.97;;
74245;SDS011;62601;51.044;13.788;2023-04-05T13:39:25;2.90;;;2.53;;
74245;SDS011;62601;51.044;13.788;2023-04-05T13:41:47;3.63;;;3.28;;
74245;SDS011;62601;51.044;13.788;2023-04-05T13:44:08;3.80;;;2.80;;
74245;SDS011;62601;51.044;13.788;2023-04-05T13:46:30;6.35;;;2.85;;
74245;SDS011;62601;51.044;13.788;2023-04-05T13:48:51;6.50;;;3.50;;
74245;SDS011;62601;51.044;13.788;2023-04-05T13:51:12;5.47;;;3.13;;
74245;SDS011;62601;51.044;13.788;2023-04-05T13:53:34;5.47;;;3.00;;
74245;SDS011;62601;51.044;13.788;2023-04-05T13:55:55;6.25;;;4.30;;
74245;SDS011;62601;51.044;13.788;2023-04-05T13:58:16;4.18;;;3.78;;
74245;SDS011;62601;51.044;13.788;2023-04-05T14:00:36;5.78;;;3.15;;
74245;SDS011;62601;51.044;13.788;2023-04-05T14:02:58;5.50;;;3.20;;
74245;SDS011;62601;51.044;13.788;2023-04-05T14:05:20;3.20;;;2.88;;
74245;SDS011;62601;51.044;13.788;2023-04-05T14:07:41;3.53;;;2.92;;
74245;SDS011;62601;51.044;13.788;2023-04-05T14:10:01;4.38;;;3.33;;
74245;SDS011;62601;51.044;13.788;2023-04-05T14:12:22;3.20;;;2.80;;
74245;SDS011;62601;51.044;13.788;2023-04-05T14:14:42;3.63;;;3.20;;
74245;SDS011;62601;51.044;13.788;2023-04-05T14:17:02;5.40;;;2.83;;
74245;SDS011;62601;51.044;13.788;2023-04-05T14:19:22;3.45;;;2.70;;
74245;SDS011;62601;51.044;13.788;2023-04-05T14:21:42;4.38;;;3.08;;
74245;SDS011;62601;51.044;13.788;2023-04-05T14:24:02;5.10;;;2.92;;
74245;SDS011;62601;51.044;13.788;2023-04-05T14:26:23;6.60;;;2.45;;
74245;SDS011;62601;51.044;13.788;2023-04-05T14:28:43;6.93;;;3.05;;